Time,TemperatureF,DewpointF,PressureIn,WindDirection,WindDirectionDegrees,WindSpeedMPH,WindSpeedGustMPH,Humidity,HourlyPrecipIn,Conditions,Clouds,dailyrainin,SoftwareType,DateUTC
2013-03-27 00:08:00,22.3,21.6,30.25,SSE,157,0.0,-999.0,97,-99.99,,,0.00,Acu-Link.com,2013-03-27 05:08:00,
2013-03-27 00:23:00,21.6,20.9,30.25,East,90,0.0,-999.0,97,-99.99,,,0.00,Acu-Link.com,2013-03-27 05:23:00,
2013-03-27 00:38:00,23.0,22.3,30.25,NNE,22,1.1,-999.0,97,-99.99,,,0.00,Acu-Link.com,2013-03-27 05:38:00,
2013-03-27 00:53:00,22.8,22.1,30.23,NE,45,0.0,-999.0,97,-99.99,,,0.00,Acu-Link.com,2013-03-27 05:53:00,
2013-03-27 01:08:00,23.4,22.9,30.24,NE,45,0.0,-999.0,98,-99.99,,,0.00,Acu-Link.com,2013-03-27 06:08:00,
2013-03-27 01:24:00,23.4,22.9,30.24,ESE,112,0.0,-999.0,98,-99.99,,,0.00,Acu-Link.com,2013-03-27 06:24:00,
2013-03-27 01:39:00,22.6,22.1,30.24,NE,45,0.0,-999.0,98,-99.99,,,0.00,Acu-Link.com,2013-03-27 06:39:00,
2013-03-27 01:54:00,22.8,22.1,30.24,ESE,112,0.0,-999.0,97,-99.99,,,0.00,Acu-Link.com,2013-03-27 06:54:00,
2013-03-27 02:09:00,23.2,22.5,30.24,East,90,2.2,-999.0,97,-99.99,,,0.00,Acu-Link.com,2013-03-27 07:09:00,
2013-03-27 02:24:00,23.5,22.5,30.24,NNE,22,0.0,-999.0,96,-99.99,,,0.00,Acu-Link.com,2013-03-27 07:24:00,
2013-03-27 02:39:00,23.7,23.0,30.24,South,180,1.7,-999.0,97,-99.99,,,0.00,Acu-Link.com,2013-03-27 07:39:00,
2013-03-27 02:54:00,23.2,22.5,30.24,ESE,112,0.0,-999.0,97,-99.99,,,0.00,Acu-Link.com,2013-03-27 07:54:00,
2013-03-27 03:09:00,22.6,21.9,30.24,NE,45,0.0,-999.0,97,-99.99,,,0.00,Acu-Link.com,2013-03-27 08:09:00,
2013-03-27 03:25:00,22.8,22.1,30.24,ENE,67,1.7,-999.0,97,-99.99,,,0.00,Acu-Link.com,2013-03-27 08:25:00,
2013-03-27 03:40:00,23.4,22.7,30.22,East,90,1.1,-999.0,97,-99.99,,,0.00,Acu-Link.com,2013-03-27 08:40:00,
2013-03-27 03:55:00,23.4,22.7,30.23,East,90,1.7,-999.0,97,-99.99,,,0.00,Acu-Link.com,2013-03-27 08:55:00,
2013-03-27 04:10:00,23.4,22.7,30.22,ESE,112,1.7,-999.0,97,-99.99,,,0.00,Acu-Link.com,2013-03-27 09:10:00,
2013-03-27 04:25:00,23.7,23.0,30.23,SE,135,0.0,-999.0,97,-99.99,,,0.00,Acu-Link.com,2013-03-27 09:25:00,
2013-03-27 04:40:00,23.7,23.0,30.22,ENE,67,1.7,-999.0,97,-99.99,,,0.00,Acu-Link.com,2013-03-27 09:40:00,
2013-03-27 04:55:00,24.4,23.7,30.23,ESE,112,1.7,-999.0,97,-99.99,,,0.00,Acu-Link.com,2013-03-27 09:55:00,
2013-03-27 05:10:00,25.7,24.2,30.22,East,90,3.2,-999.0,94,-99.99,,,0.00,Acu-Link.com,2013-03-27 10:10:00,
2013-03-27 05:25:00,26.1,24.6,30.22,ESE,112,3.7,-999.0,94,-99.99,,,0.00,Acu-Link.com,2013-03-27 10:25:00,
2013-03-27 05:40:00,26.4,24.7,30.22,ENE,67,3.7,-999.0,93,-99.99,,,0.00,Acu-Link.com,2013-03-27 10:40:00,
2013-03-27 05:56:00,26.4,24.7,30.22,East,90,2.2,-999.0,93,-99.99,,,0.00,Acu-Link.com,2013-03-27 10:56:00,
2013-03-27 06:56:00,26.8,24.8,30.23,SSE,157,2.7,-999.0,92,-99.99,,,0.00,Acu-Link.com,2013-03-27 11:56:00,
2013-03-27 07:11:00,27.7,25.2,30.23,South,180,3.7,-999.0,90,-99.99,,,0.00,Acu-Link.com,2013-03-27 12:11:00,
2013-03-27 07:26:00,28.2,25.4,30.25,ESE,112,3.7,-999.0,89,-99.99,,,0.00,Acu-Link.com,2013-03-27 12:26:00,
2013-03-27 08:12:00,30.0,26.3,30.25,SSE,157,4.7,-999.0,86,-99.99,,,0.00,Acu-Link.com,2013-03-27 13:12:00,
2013-03-27 08:27:00,31.3,26.5,30.25,SSE,157,4.7,-999.0,82,-99.99,,,0.00,Acu-Link.com,2013-03-27 13:27:00,
2013-03-27 08:42:00,31.8,26.9,30.26,South,180,5.3,-999.0,82,-99.99,,,0.00,Acu-Link.com,2013-03-27 13:42:00,
2013-03-27 08:57:00,32.2,27.3,30.26,ESE,112,4.2,-999.0,82,-99.99,,,0.00,Acu-Link.com,2013-03-27 13:57:00,
2013-03-27 09:12:00,33.3,27.8,30.24,SSE,157,5.8,-999.0,80,-99.99,,,0.00,Acu-Link.com,2013-03-27 14:12:00,
2013-03-27 09:27:00,33.4,27.9,30.25,SSE,157,5.3,-999.0,80,-99.99,,,0.00,Acu-Link.com,2013-03-27 14:27:00,
2013-03-27 09:42:00,33.8,28.6,30.24,SSE,157,7.8,-999.0,81,-99.99,,,0.00,Acu-Link.com,2013-03-27 14:42:00,
2013-03-27 09:57:00,34.2,28.7,30.24,SSE,157,6.8,-999.0,80,-99.99,,,0.00,Acu-Link.com,2013-03-27 14:57:00,
2013-03-27 10:12:00,35.1,29.3,30.24,SSE,157,6.8,-999.0,79,-99.99,,,0.00,Acu-Link.com,2013-03-27 15:12:00,
2013-03-27 10:28:00,35.8,29.9,30.24,SE,135,5.3,-999.0,79,-99.99,,,0.00,Acu-Link.com,2013-03-27 15:28:00,
2013-03-27 10:43:00,36.0,29.8,30.27,ESE,112,3.2,-999.0,78,-99.99,,,0.00,Acu-Link.com,2013-03-27 15:43:00,
2013-03-27 10:58:00,36.0,30.1,30.26,East,90,5.3,-999.0,79,-99.99,,,0.00,Acu-Link.com,2013-03-27 15:58:00,
2013-03-27 11:13:00,36.3,30.4,30.25,East,90,4.2,-999.0,79,-99.99,,,0.00,Acu-Link.com,2013-03-27 16:13:00,
2013-03-27 11:28:00,37.4,30.9,30.25,ESE,112,4.7,-999.0,77,-99.99,,,0.00,Acu-Link.com,2013-03-27 16:28:00,
2013-03-27 11:43:00,37.0,30.5,30.25,SE,135,7.3,-999.0,77,-99.99,,,0.00,Acu-Link.com,2013-03-27 16:43:00,
2013-03-27 11:58:00,37.4,32.1,30.24,ENE,67,4.7,-999.0,81,-99.99,,,0.00,Acu-Link.com,2013-03-27 16:58:00,
2013-03-27 12:13:00,37.4,31.8,30.23,East,90,9.9,-999.0,80,-99.99,,,0.00,Acu-Link.com,2013-03-27 17:13:00,
2013-03-27 12:28:00,38.5,32.2,30.23,ESE,112,8.3,-999.0,78,-99.99,,,0.00,Acu-Link.com,2013-03-27 17:28:00,
2013-03-27 12:44:00,39.4,32.8,30.24,SSE,157,6.3,-999.0,77,-99.99,,,0.00,Acu-Link.com,2013-03-27 17:44:00,
2013-03-27 12:59:00,41.0,33.4,30.24,SSE,157,5.8,-999.0,74,-99.99,,,0.00,Acu-Link.com,2013-03-27 17:59:00,
2013-03-27 13:14:00,40.8,32.8,30.23,SSE,157,7.8,-999.0,73,-99.99,,,0.00,Acu-Link.com,2013-03-27 18:14:00,
2013-03-27 13:29:00,40.8,32.8,30.23,SSE,157,7.3,-999.0,73,-99.99,,,0.00,Acu-Link.com,2013-03-27 18:29:00,
2013-03-27 13:44:00,41.2,32.5,30.22,SSE,157,7.3,-999.0,71,-99.99,,,0.00,Acu-Link.com,2013-03-27 18:44:00,
2013-03-27 13:59:00,42.1,33.0,30.21,SSE,157,8.9,-999.0,70,-99.99,,,0.00,Acu-Link.com,2013-03-27 18:59:00,
2013-03-27 14:14:00,42.8,34.1,30.21,SSE,157,4.7,-999.0,71,-99.99,,,0.00,Acu-Link.com,2013-03-27 19:14:00,
2013-03-27 14:29:00,43.2,34.4,30.20,ESE,112,6.3,-999.0,71,-99.99,,,0.00,Acu-Link.com,2013-03-27 19:29:00,
2013-03-27 14:44:00,43.2,34.1,30.18,SE,135,7.3,-999.0,70,-99.99,,,0.00,Acu-Link.com,2013-03-27 19:44:00,
2013-03-27 15:00:00,43.9,34.8,30.17,SSE,157,8.9,-999.0,70,-99.99,,,0.00,Acu-Link.com,2013-03-27 20:00:00,
2013-03-27 15:15:00,43.7,34.6,30.17,SSE,157,7.3,-999.0,70,-99.99,,,0.00,Acu-Link.com,2013-03-27 20:15:00,
2013-03-27 15:30:00,45.1,34.4,30.16,East,90,10.4,-999.0,66,-99.99,,,0.00,Acu-Link.com,2013-03-27 20:30:00,
2013-03-27 15:45:00,45.5,34.4,30.14,ESE,112,9.9,-999.0,65,-99.99,,,0.00,Acu-Link.com,2013-03-27 20:45:00,
2013-03-27 16:00:00,45.9,35.6,30.14,SE,135,10.4,-999.0,67,-99.99,,,0.00,Acu-Link.com,2013-03-27 21:00:00,
2013-03-27 16:15:00,45.7,35.8,30.13,SE,135,8.9,-999.0,68,-99.99,,,0.00,Acu-Link.com,2013-03-27 21:15:00,
2013-03-27 16:30:00,45.1,35.5,30.13,SSE,157,9.4,-999.0,69,-99.99,,,0.00,Acu-Link.com,2013-03-27 21:30:00,
2013-03-27 16:45:00,46.0,36.0,30.13,ESE,112,6.8,-999.0,68,-99.99,,,0.00,Acu-Link.com,2013-03-27 21:45:00,
2013-03-27 17:01:00,45.1,35.9,30.14,East,90,7.8,-999.0,70,-99.99,,,0.00,Acu-Link.com,2013-03-27 22:01:00,
2013-03-27 18:01:00,45.5,36.3,30.15,SE,135,6.3,-999.0,70,-99.99,,,0.00,Acu-Link.com,2013-03-27 23:01:00,
2013-03-27 18:16:00,45.0,36.5,30.16,ESE,112,4.7,-999.0,72,-99.99,,,0.00,Acu-Link.com,2013-03-27 23:16:00,
2013-03-27 18:31:00,44.8,36.7,30.16,ESE,112,3.2,-999.0,73,-99.99,,,0.00,Acu-Link.com,2013-03-27 23:31:00,
2013-03-27 18:46:00,44.1,35.7,30.15,East,90,7.3,-999.0,72,-99.99,,,0.00,Acu-Link.com,2013-03-27 23:46:00,
2013-03-27 19:01:00,43.5,35.1,30.16,East,90,4.7,-999.0,72,-99.99,,,0.00,Acu-Link.com,2013-03-28 00:01:00,
2013-03-27 19:17:00,43.2,34.8,30.15,East,90,4.7,-999.0,72,-99.99,,,0.00,Acu-Link.com,2013-03-28 00:17:00,
2013-03-27 19:32:00,42.8,35.4,30.15,East,90,5.8,-999.0,75,-99.99,,,0.00,Acu-Link.com,2013-03-28 00:32:00,
2013-03-27 19:47:00,42.4,35.7,30.16,ENE,67,6.3,-999.0,77,-99.99,,,0.00,Acu-Link.com,2013-03-28 00:47:00,
2013-03-27 20:17:00,42.1,35.7,30.16,East,90,7.3,-999.0,78,-99.99,,,0.00,Acu-Link.com,2013-03-28 01:17:00,
2013-03-27 20:32:00,42.1,35.7,30.15,ENE,67,6.3,-999.0,78,-99.99,,,0.00,Acu-Link.com,2013-03-28 01:32:00,
2013-03-27 20:47:00,41.9,36.2,30.15,ESE,112,4.2,-999.0,80,-99.99,,,0.00,Acu-Link.com,2013-03-28 01:47:00,
2013-03-27 21:02:00,41.9,36.5,30.16,ENE,67,5.8,-999.0,81,-99.99,,,0.00,Acu-Link.com,2013-03-28 02:02:00,
2013-03-27 21:17:00,41.7,36.0,30.16,ESE,112,5.8,-999.0,80,-99.99,,,0.00,Acu-Link.com,2013-03-28 02:17:00,
2013-03-27 21:33:00,41.5,35.8,30.16,East,90,5.8,-999.0,80,-99.99,,,0.00,Acu-Link.com,2013-03-28 02:33:00,
2013-03-27 21:48:00,40.8,36.0,30.16,NE,45,4.2,-999.0,83,-99.99,,,0.00,Acu-Link.com,2013-03-28 02:48:00,
2013-03-27 22:03:00,40.1,35.7,30.16,ENE,67,4.7,-999.0,84,-99.99,,,0.00,Acu-Link.com,2013-03-28 03:03:00,
2013-03-27 22:18:00,39.9,35.5,30.16,East,90,3.7,-999.0,84,-99.99,,,0.00,Acu-Link.com,2013-03-28 03:18:00,
2013-03-27 22:33:00,40.1,35.4,30.17,East,90,4.2,-999.0,83,-99.99,,,0.00,Acu-Link.com,2013-03-28 03:33:00,
2013-03-27 22:48:00,40.1,35.4,30.17,East,90,4.2,-999.0,83,-99.99,,,0.00,Acu-Link.com,2013-03-28 03:48:00,
2013-03-27 23:03:00,39.9,35.2,30.16,East,90,2.7,-999.0,83,-99.99,,,0.00,Acu-Link.com,2013-03-28 04:03:00,
2013-03-27 23:18:00,39.7,35.0,30.16,East,90,3.2,-999.0,83,-99.99,,,0.00,Acu-Link.com,2013-03-28 04:18:00,
2013-03-27 23:33:00,39.7,35.0,30.15,ESE,112,5.3,-999.0,83,-99.99,,,0.00,Acu-Link.com,2013-03-28 04:33:00,
2013-03-27 23:49:00,39.7,35.0,30.16,ESE,112,4.2,-999.0,83,-99.99,,,0.00,Acu-Link.com,2013-03-28 04:49:00,